createdAt,value
2018-07-04T00:03:38.982Z,84.10
2018-07-04T00:07:44.375Z,85.00
2018-07-04T00:11:43.343Z,85.60
2018-07-04T00:15:49.509Z,86.00
2018-07-04T00:19:54.676Z,86.50
2018-07-04T00:23:59.895Z,86.60
2018-07-04T00:28:05.386Z,87.20
2018-07-04T00:32:10.603Z,87.60
2018-07-04T00:36:15.889Z,88.00
2018-07-04T00:40:21.523Z,88.60
2018-07-04T00:44:26.951Z,89.00
2018-07-04T00:48:32.318Z,89.80
2018-07-04T00:52:37.448Z,89.60
2018-07-04T00:56:42.734Z,90.00
2018-07-04T01:00:47.966Z,92.50
2018-07-04T01:04:53.167Z,93.30
2018-07-04T01:08:58.778Z,94.00
2018-07-04T01:12:57.756Z,94.20
2018-07-04T01:17:03.224Z,94.30
2018-07-04T01:21:12.985Z,94.90
2018-07-04T01:25:18.246Z,95.10
2018-07-04T01:29:24.532Z,95.20
2018-07-04T01:33:29.951Z,94.90
2018-07-04T01:37:35.339Z,95.20
2018-07-04T01:41:41.066Z,95.20
2018-07-04T01:45:46.346Z,95.60
2018-07-04T01:49:51.703Z,95.60
2018-07-04T01:53:56.972Z,95.50
2018-07-04T01:58:02.359Z,95.40
2018-07-04T02:02:07.832Z,95.80
2018-07-04T02:06:13.242Z,95.80
2018-07-04T02:10:18.622Z,96.00
2018-07-04T02:14:24.071Z,96.20
2018-07-04T02:18:23.246Z,96.30
2018-07-04T02:22:28.469Z,96.40
2018-07-04T02:26:33.610Z,96.50
2018-07-04T02:30:38.728Z,96.60
2018-07-04T02:34:44.070Z,96.80
2018-07-04T02:38:49.343Z,96.90
2018-07-04T02:42:54.663Z,97.10
2018-07-04T02:47:00.162Z,97.20
2018-07-04T02:51:05.718Z,97.40
2018-07-04T02:55:11.176Z,97.50
2018-07-04T02:59:16.354Z,97.50
2018-07-04T03:03:21.631Z,97.50
2018-07-04T03:07:26.764Z,97.60
2018-07-04T03:11:32.123Z,97.60
2018-07-04T03:15:33.025Z,97.60
2018-07-04T03:19:38.293Z,97.60
2018-07-04T03:23:43.843Z,97.60
2018-07-04T03:27:49.181Z,97.80
2018-07-04T03:31:54.458Z,97.80
2018-07-04T03:35:59.778Z,97.80
2018-07-04T03:40:05.043Z,97.80
2018-07-04T03:44:10.375Z,97.90
2018-07-04T03:48:15.783Z,98.10
2018-07-04T03:52:21.233Z,98.10
2018-07-04T03:56:20.486Z,98.20
2018-07-04T04:00:25.734Z,98.30
2018-07-04T04:04:31.016Z,98.40
2018-07-04T04:08:36.281Z,98.40
2018-07-04T04:12:35.384Z,98.40
2018-07-04T04:16:40.824Z,98.40
2018-07-04T04:20:45.953Z,98.50
2018-07-04T04:24:51.357Z,98.40
2018-07-04T04:28:57.794Z,98.30
2018-07-04T04:33:03.240Z,98.20
2018-07-04T04:37:08.396Z,98.40
2018-07-04T04:41:13.599Z,98.60
2018-07-04T04:49:18.669Z,98.80
2018-07-04T04:53:23.977Z,98.80
2018-07-04T04:57:29.474Z,98.60
2018-07-04T05:01:34.914Z,98.50
2018-07-04T05:05:40.383Z,98.20
2018-07-04T05:09:45.667Z,98.40
2018-07-04T05:13:44.674Z,98.20
2018-07-04T05:17:50.015Z,98.10
2018-07-04T05:21:55.413Z,97.90
2018-07-04T05:26:00.720Z,97.80
2018-07-04T05:30:06.148Z,97.80
2018-07-04T05:34:11.510Z,97.60
2018-07-04T05:38:16.674Z,97.50
2018-07-04T05:42:21.803Z,97.30
2018-07-04T05:46:27.277Z,97.00
2018-07-04T05:50:32.609Z,96.60
2018-07-04T05:54:37.829Z,96.60
2018-07-04T05:58:43.031Z,96.40
2018-07-04T06:02:48.503Z,96.30
2018-07-04T06:06:53.657Z,96.00
2018-07-04T06:10:59.206Z,95.20
2018-07-04T06:14:58.638Z,95.50
2018-07-04T06:19:03.959Z,95.00
2018-07-04T06:23:09.161Z,94.60
2018-07-04T06:27:14.632Z,94.30
2018-07-04T06:31:20.108Z,94.30
2018-07-04T06:35:25.258Z,93.40
2018-07-04T06:39:18.154Z,93.20
2018-07-04T06:43:11.083Z,93.00
2018-07-04T06:47:04.059Z,92.20
2018-07-04T06:50:57.032Z,92.00
2018-07-04T06:54:50.555Z,92.30
2018-07-04T06:58:43.495Z,92.00
2018-07-04T07:02:36.386Z,91.80
2018-07-04T07:06:41.953Z,92.00
2018-07-04T07:10:47.905Z,91.80
2018-07-04T07:14:46.867Z,91.50
2018-07-04T07:18:52.035Z,91.60
2018-07-04T07:22:57.723Z,91.50
2018-07-04T07:27:03.236Z,91.40
2018-07-04T07:31:10.793Z,91.50
2018-07-04T07:35:18.643Z,91.50
2018-07-04T07:39:24.773Z,90.70
2018-07-04T07:43:30.146Z,90.70
2018-07-04T07:47:35.644Z,89.90
2018-07-04T07:51:41.419Z,90.00
2018-07-04T07:55:47.321Z,88.70
2018-07-04T07:59:52.699Z,88.70
2018-07-04T08:03:58.030Z,87.80
2018-07-04T08:08:03.306Z,86.70
2018-07-04T08:12:03.308Z,86.50
2018-07-04T08:16:10.951Z,85.70
2018-07-04T08:20:16.066Z,84.90
2018-07-04T08:24:22.426Z,83.60
2018-07-04T08:28:35.409Z,82.80
2018-07-04T08:32:43.346Z,81.60
2018-07-04T08:36:49.505Z,81.70
2018-07-04T08:40:50.206Z,82.00
2018-07-04T08:44:57.456Z,78.90
2018-07-04T08:49:03.318Z,76.80
2018-07-04T08:53:09.450Z,75.60
2018-07-04T08:57:15.455Z,74.60
2018-07-04T09:01:21.809Z,70.20
2018-07-04T09:05:33.101Z,69.00
2018-07-04T09:09:42.078Z,68.20
2018-07-04T09:13:53.941Z,66.10
2018-07-04T09:18:03.314Z,62.40
2018-07-04T09:22:09.037Z,60.70
2018-07-04T09:26:14.407Z,59.90
2018-07-04T09:30:19.649Z,59.50
2018-07-04T09:34:28.200Z,57.80
2018-07-04T09:38:38.049Z,49.00
2018-07-04T09:42:52.663Z,46.80
2018-07-04T09:47:04.561Z,46.40
2018-07-04T09:51:15.507Z,46.70
2018-07-04T09:55:25.063Z,46.80
2018-07-04T09:59:35.415Z,44.10
2018-07-04T10:03:41.693Z,42.30
2018-07-04T10:07:47.108Z,42.00
2018-07-04T10:11:52.619Z,42.00
2018-07-04T10:16:15.327Z,41.60
2018-07-04T10:24:46.771Z,43.40
2018-07-04T10:29:04.264Z,42.90
2018-07-04T10:33:15.487Z,43.50
2018-07-04T10:37:25.092Z,44.50
2018-07-04T10:41:31.720Z,45.30
2018-07-04T10:45:44.254Z,45.60
2018-07-04T10:49:59.870Z,45.00
2018-07-04T11:07:13.615Z,45.30
2018-07-04T11:11:19.231Z,44.70
2018-07-04T11:15:19.965Z,43.80
2018-07-04T11:19:30.415Z,43.60
2018-07-04T11:28:18.886Z,43.60
2018-07-04T11:32:24.318Z,41.50
2018-07-04T11:36:29.741Z,40.80
2018-07-04T11:40:36.223Z,40.80
2018-07-04T11:44:46.630Z,40.10
2018-07-04T11:48:42.950Z,39.80
2018-07-04T11:52:36.818Z,40.10
2018-07-04T11:56:29.942Z,39.80
2018-07-04T12:00:22.983Z,39.50
2018-07-04T12:04:29.783Z,39.50
2018-07-04T12:08:24.117Z,39.60
2018-07-04T12:12:18.527Z,40.10
2018-07-04T12:16:11.598Z,40.90
2018-07-04T12:20:05.004Z,41.20
2018-07-04T12:23:58.052Z,43.00
2018-07-04T12:31:44.167Z,45.00
2018-07-04T12:35:41.185Z,45.70
2018-07-04T12:39:34.132Z,45.00
2018-07-04T12:43:27.726Z,45.50
2018-07-04T12:47:20.751Z,45.80
2018-07-04T12:51:13.887Z,46.10
2018-07-04T12:55:19.169Z,45.80
2018-07-04T12:59:24.446Z,46.50
2018-07-04T13:03:36.305Z,47.10
2018-07-04T13:07:42.127Z,45.00
2018-07-04T13:11:47.435Z,44.10
2018-07-04T13:15:46.747Z,43.80
2018-07-04T13:19:52.407Z,44.90
2018-07-04T13:23:57.890Z,45.80
2018-07-04T13:28:03.389Z,46.30
2018-07-04T13:32:09.333Z,47.00
2018-07-04T13:36:14.491Z,47.80
2018-07-04T13:40:21.407Z,48.30
2018-07-04T13:44:27.124Z,48.10
2018-07-04T13:48:32.433Z,48.80
2018-07-04T13:52:38.006Z,48.10
2018-07-04T13:56:43.351Z,48.30
2018-07-04T14:00:50.565Z,48.60
2018-07-04T14:04:55.798Z,48.50
2018-07-04T14:09:02.294Z,48.90
2018-07-04T14:13:01.381Z,49.30
2018-07-04T14:17:07.422Z,50.10
2018-07-04T14:21:12.662Z,50.10
2018-07-04T14:25:20.146Z,50.40
2018-07-04T14:29:28.187Z,50.30
2018-07-04T14:33:34.553Z,50.00
2018-07-04T14:37:40.000Z,50.70
2018-07-04T14:41:46.597Z,51.20
2018-07-04T14:45:52.405Z,51.80
2018-07-04T14:49:57.583Z,51.60
2018-07-04T14:54:02.925Z,52.80
2018-07-04T14:58:12.146Z,53.80
2018-07-04T15:02:17.383Z,53.40
2018-07-04T15:06:28.195Z,53.40
2018-07-04T15:10:33.523Z,53.70
2018-07-04T15:14:33.060Z,54.40
2018-07-04T15:18:38.391Z,54.50
2018-07-04T15:22:43.667Z,55.40
2018-07-04T15:26:48.973Z,56.00
2018-07-04T15:30:54.366Z,56.60
2018-07-04T15:35:00.337Z,57.30
2018-07-04T15:39:05.690Z,57.60
2018-07-04T15:43:11.212Z,57.60
2018-07-04T15:47:16.456Z,57.60
2018-07-04T15:51:22.587Z,56.90
2018-07-04T15:55:27.906Z,56.90
2018-07-04T15:59:33.341Z,57.20
2018-07-04T16:03:38.827Z,57.30
2018-07-04T16:07:44.171Z,57.10
2018-07-04T16:11:49.584Z,57.60
2018-07-04T16:15:48.578Z,58.00
2018-07-04T16:19:54.090Z,58.30
2018-07-04T16:23:59.578Z,58.90
2018-07-04T16:28:04.962Z,59.20
2018-07-04T16:32:10.412Z,59.70
2018-07-04T16:36:16.247Z,60.20
2018-07-04T16:40:21.707Z,60.50
2018-07-04T16:44:26.953Z,60.50
2018-07-04T16:48:32.363Z,59.90
2018-07-04T16:52:37.551Z,60.00
2018-07-04T16:56:43.081Z,59.50
2018-07-04T17:00:48.382Z,60.00
2018-07-04T17:04:53.718Z,60.40
2018-07-04T17:08:59.261Z,61.60
2018-07-04T17:13:05.822Z,62.90
2018-07-04T17:17:04.857Z,66.90
2018-07-04T17:21:10.571Z,68.60
2018-07-04T17:25:16.128Z,69.90
2018-07-04T17:29:21.683Z,70.90
2018-07-04T17:33:27.184Z,71.30
2018-07-04T17:37:33.092Z,71.90
2018-07-04T17:41:39.570Z,73.50
2018-07-04T17:45:45.207Z,73.90
2018-07-04T17:49:50.708Z,74.30
2018-07-04T17:53:57.808Z,74.40
2018-07-04T17:58:02.967Z,75.40
2018-07-04T18:02:08.467Z,76.60
2018-07-04T18:06:15.449Z,77.90
2018-07-04T18:10:21.026Z,79.30
2018-07-04T18:14:21.205Z,80.80
2018-07-04T18:22:38.984Z,82.70
2018-07-04T18:26:44.914Z,83.70
2018-07-04T18:30:50.116Z,84.50
2018-07-04T18:34:55.421Z,86.10
2018-07-04T18:43:12.423Z,86.80
2018-07-04T18:47:17.729Z,87.60
2018-07-04T18:51:23.146Z,87.70
2018-07-04T18:55:28.623Z,88.10
2018-07-04T18:59:33.974Z,88.80
2018-07-04T19:03:39.500Z,90.20
2018-07-04T19:07:44.959Z,90.70
2018-07-04T19:11:50.223Z,91.40
2018-07-04T19:15:50.419Z,91.40
2018-07-04T19:19:56.247Z,92.00
2018-07-04T19:32:13.750Z,92.10
2018-07-04T19:36:20.146Z,92.70
2018-07-04T19:40:25.554Z,93.10
2018-07-04T19:44:31.816Z,93.30
2018-07-04T19:48:37.176Z,93.30
2018-07-04T19:52:42.954Z,93.40
2018-07-04T19:56:48.239Z,93.50
2018-07-04T20:00:54.205Z,93.80
2018-07-04T20:04:59.910Z,94.00
2018-07-04T20:09:06.596Z,94.10
2018-07-04T20:13:12.005Z,94.10
2018-07-04T20:17:11.208Z,94.20
2018-07-04T20:21:16.349Z,94.30
2018-07-04T20:25:22.731Z,94.20
2018-07-04T20:29:28.436Z,94.30
2018-07-04T21:17:44.855Z,98.00
2018-07-04T21:21:50.338Z,98.60
2018-07-04T21:25:55.899Z,98.70
2018-07-04T21:30:02.455Z,98.90
2018-07-04T21:34:13.465Z,99.00
2018-07-04T21:38:21.538Z,99.10
2018-07-04T21:42:27.740Z,99.20
2018-07-04T21:46:33.761Z,99.40
2018-07-04T21:55:01.837Z,99.60
2018-07-04T21:59:08.081Z,99.80
2018-07-04T22:03:13.546Z,99.90
2018-07-04T22:11:41.668Z,99.90
2018-07-04T22:15:48.858Z,99.90
2018-07-04T22:19:57.340Z,99.90
2018-07-04T22:24:02.852Z,99.90
2018-07-04T22:28:12.784Z,99.90
2018-07-04T22:36:43.659Z,99.90
2018-07-04T22:40:48.926Z,99.90
2018-07-04T22:44:54.568Z,99.90
2018-07-04T22:49:01.375Z,99.90
2018-07-04T22:53:10.659Z,99.90
2018-07-04T22:57:21.751Z,99.90
2018-07-04T23:01:27.911Z,99.90
2018-07-04T23:05:34.780Z,99.90
2018-07-04T23:09:40.352Z,99.90
2018-07-04T23:13:45.745Z,99.90
2018-07-04T23:17:45.074Z,99.90
2018-07-04T23:21:50.639Z,99.90
2018-07-04T23:30:31.047Z,99.90
2018-07-04T23:34:44.014Z,99.90
2018-07-04T23:38:49.776Z,99.90
2018-07-04T23:42:56.888Z,99.90
2018-07-04T23:47:03.631Z,99.90
2018-07-04T23:51:09.226Z,99.90
2018-07-04T23:55:15.338Z,99.90
2018-07-04T23:59:21.469Z,99.90
